Nearby Weather Observations


KTIP - Rantoul, Illinois, USA
Distance from station: ENE 12mi, 19km
Updated: Sat, 18-Nov-2017 9:15am CST

 Wind from NE
Wind: NE 8 mph , 13 km/h
Visibility: 3 miles , 5 km
2017/11/18 15:15 KTIP 181515Z AUTO 05007KT 3SM +VCTSRA SCT005 BKN008 OVC024 14/13 A2928 RMK AO2 LTG DSNT ALQS P0011 T01370131
KCMI - Champaign/Urbana, Illinois, USA
Distance from station: SSE 14mi, 22km
Updated: Sat, 18-Nov-2017 9:23am CST
Light thunderstorm, Rain, Mist, Overcast
Light thunderstorm, Rain, Mist, Overcast
 Wind from SSW
Wind: SSW 25 mph , 41 km/h, Gust: 37 mph , 59 km/h
Temperature: 63°F , 17°C
Dew Point: 61°F , 16°C
Humidity: 94%
Barometer: 29.26 inHg , 990.9 hPa
Summary: Light thunderstorm, Rain, Mist
Clouds: Overcast
Visibility: 6 miles , 10 km
Cloud details: Mostly cloudy 1400 ft
Overcast 2100 ft
2017/11/18 15:23 KCMI 181523Z 20022G32KT 6SM -TSRA BR BKN014 OVC021 17/16 A2926 RMK AO2 PK WND 20032/1517 LTG DSNT W-NE RAB03 TSB05 P0004 T01720161
 
KBMI - Bloomington/Norm, Illinois, USA
Distance from station: WNW 34mi, 55km
Updated: Sat, 18-Nov-2017 9:22am CST
Nearby thunderstorm, Rain, Mist, Overcast
Nearby thunderstorm, Rain, Mist, Overcast
 Wind from N
Wind: N 24 mph , 39 km/h, Gust: 30 mph , 48 km/h
Temperature: 46°F , 8°C
Wind Chill: 38°F , 3°C
Dew Point: 46°F , 8°C
Humidity: 100%
Barometer: 29.38 inHg , 994.9 hPa
Summary: Nearby thunderstorm, Rain, Mist
Clouds: Overcast
Visibility: 5 miles , 8 km
Cloud details: Overcast 400 ft
2017/11/18 15:22 KBMI 181522Z 35021G26KT 5SM VCTS RA BR OVC004 08/08 A2938 RMK AO2 PK WND 35026/1517 LTG DSNT E-SW TSE19B21 PRESRR P0002
KDEC - Decatur, Illinois, USA
Distance from station: SW 37mi, 60km
Updated: Sat, 18-Nov-2017 9:22am CST
Overcast
Overcast
 Wind from WNW
Wind: WNW 15 mph , 24 km/h, Gust: 29 mph , 46 km/h
Temperature: 63°F , 17°C
Dew Point: 57°F , 14°C
Humidity: 83%
Barometer: 29.31 inHg , 992.5 hPa
Clouds: Overcast
Visibility: 10 miles , 16 km
Cloud details: Mostly cloudy 1400 ft
Overcast 2800 ft
2017/11/18 15:22 KDEC 181522Z 29013G25KT 10SM BKN014 OVC028 17/14 A2931 RMK AO2 PK WND 22033/1510 WSHFT 1506 LTG DSNT NW-NE RAE03B12E21 P0000 T01670144
 
KDNV - Danville, Illinois, USA
Distance from station: E 40mi, 65km
Updated: Sat, 18-Nov-2017 9:15am CST
Overcast
Overcast
 Wind from S
Wind: S 22 mph , 35 km/h, Gust: 33 mph , 54 km/h
Temperature: 61°F , 16°C
Dew Point: 59°F , 15°C
Humidity: 94%
Barometer: 29.23 inHg , 989.8 hPa
Clouds: Overcast
Visibility: 10 miles , 16 km
Cloud details: Overcast 1200 ft
2017/11/18 15:15 KDNV 181515Z AUTO 19019G29KT 10SM OVC012 16/15 A2923 RMK AO2 T01610150
KAAA - Lincoln, Illinois, USA
Distance from station: W 52mi, 83km
Updated: Sat, 18-Nov-2017 9:15am CST

 Wind from NNW
Wind: NNW 18 mph , 30 km/h, Gust: 30 mph , 48 km/h
Visibility: 3/4 mile , 5 km
2017/11/18 15:15 KAAA 181515Z AUTO 34016G26KT 3/4SM -VCTSRA OVC005 09/09 A2939 RMK AO2 LTG DSNT N THRU SE P0028 T00920092
 
KMTO - Mattoon/Charlest, Illinois, USA
Distance from station: S 52mi, 84km
Updated: Sat, 18-Nov-2017 8:53am CST
Overcast
Overcast
 Wind from S
Wind: S 18 mph , 30 km/h, Gust: 30 mph , 48 km/h
Temperature: 63°F , 17°C
Dew Point: 59°F , 15°C
Humidity: 88%
Barometer: 29.29 inHg , 991.9 hPa
Clouds: Overcast
Visibility: 10 miles , 16 km
Cloud details: Overcast 1600 ft
2017/11/18 14:53 KMTO 181453Z AUTO 19016G26KT 10SM OVC016 17/15 A2929 RMK AO2 PK WND 20027/1430 SLP918 60002 T01720150 58043
KSPI - Springfield, Illinois, USA
Distance from station: WSW 74mi, 120km
Updated: Sat, 18-Nov-2017 9:12am CST
Light rain, Mist, Overcast
Light rain, Mist, Overcast
 Wind from NNW
Wind: NNW 22 mph , 35 km/h, Gust: 32 mph , 52 km/h
Temperature: 50°F , 10°C
Wind Chill: 43°F , 6°C
Dew Point: 48°F , 9°C
Humidity: 94%
Barometer: 29.40 inHg , 995.6 hPa
Summary: Light rain, Mist
Clouds: Overcast
Visibility: 4 miles , 6 km
Cloud details: Mostly cloudy 800 ft
Mostly cloudy 1500 ft
Overcast 2800 ft
2017/11/18 15:12 KSPI 181512Z 34019G28KT 4SM -RA BR BKN008 BKN015 OVC028 10/09 A2940 RMK AO2 PK WND 32031/1454 LTG DSNT NE CIG 006V011 P0001 T01000094
 
KLAF - Lafayette, Indiana, USA
Distance from station: E 76mi, 123km
Updated: Sat, 18-Nov-2017 9:00am CST
Light thunderstorm, Rain, Mist, Overcast
Light thunderstorm, Rain, Mist, Overcast
 Wind from ENE
Wind: ENE 10 mph , 17 km/h
Temperature: 54°F , 12°C
Dew Point: 54°F , 12°C
Humidity: 100%
Barometer: 29.29 inHg , 991.9 hPa
Summary: Light thunderstorm, Rain, Mist
Clouds: Overcast
Visibility: 1 1/4 miles , 2 km
Cloud details: Overcast 700 ft
2017/11/18 15:00 KLAF 181500Z 06009KT 1 1/4SM -TSRA BR OVC007 12/12 A2929 RMK AO2 LTG DSNT NE AND SW AND W RAB1459 TSB1459 PRESFR P0001 T01170117
KPIA - Peoria, Illinois, USA
Distance from station: WNW 76mi, 123km
Updated: Sat, 18-Nov-2017 8:54am CST
Heavy rain, Mist, Overcast
Heavy rain, Mist, Overcast
 Wind from N
Wind: N 16 mph , 26 km/h, Gust: 32 mph , 52 km/h
Temperature: 43°F , 6°C
Wind Chill: 35°F , 2°C
Dew Point: 41°F , 5°C
Humidity: 93%
Barometer: 29.44 inHg , 997 hPa
Summary: Heavy rain, Mist
Clouds: Overcast
Visibility: 2 1/2 miles , 2 km
Cloud details: Overcast 800 ft
2017/11/18 14:54 KPIA 181454Z 36014G28KT 2 1/2SM +RA BR OVC008 06/05 A2944 RMK AO2 PK WND 01030/1437 LTG DSNT S CIG 005V011 SLP971 P0024 60042 T00610050 53004
 
KHUF - Terre Haute, Indiana, USA
Distance from station: SE 77mi, 124km
Updated: Sat, 18-Nov-2017 8:53am CST
Overcast
Overcast
 Wind from SSW
Wind: SSW 20 mph , 31 km/h, Gust: 33 mph , 54 km/h
Temperature: 63°F , 17°C
Dew Point: 57°F , 14°C
Humidity: 83%
Barometer: 29.34 inHg , 993.6 hPa
Clouds: Overcast
Visibility: 10 miles , 16 km
Cloud details: Overcast 1600 ft
2017/11/18 14:53 KHUF 181453Z 20017G29KT 10SM OVC016 17/14 A2934 RMK AO2 PK WND 21029/1358 RAE02 SLP935 P0000 60003 T01720139 58042
K1H2 - Effingham, Illinois, USA
Distance from station: S 80mi, 129km
Updated: Sat, 18-Nov-2017 9:15am CST
Overcast
Overcast
 Wind from S
Wind: S 21 mph , 33 km/h, Gust: 31 mph , 50 km/h
Temperature: 68°F , 20°C
Dew Point: 63°F , 17°C
Humidity: 83%
Barometer: 29.35 inHg , 993.9 hPa
Clouds: Overcast
Visibility: 10 miles , 16 km
Cloud details: Overcast 1600 ft
2017/11/18 15:15 K1H2 181515Z AUTO 19018G27KT 10SM OVC016 20/17 A2935 RMK AO2 T01980172
 
KIND - Indianapolis, Indiana, USA
Distance from station: ESE 117mi, 133km
Updated: Sat, 18-Nov-2017 8:54am CST
Overcast
Overcast
 Wind from S
Wind: S 20 mph , 31 km/h, Gust: 31 mph , 50 km/h
Temperature: 63°F , 17°C
Dew Point: 57°F , 14°C
Humidity: 83%
Barometer: 29.36 inHg , 994.2 hPa
Clouds: Overcast
Visibility: 10 miles , 16 km
Cloud details: Overcast 1900 ft
2017/11/18 14:54 KIND 181454Z 19017G27KT 10SM OVC019 17/14 A2936 RMK AO2 PK WND 19030/1440 RAB25E45 SLP941 P0001 60014 T01670139 58044
KORD - Chicago O'hare, Illinois, USA
Distance from station: N 126mi, 203km
Updated: Sat, 18-Nov-2017 9:09am CST
Light rain, Mist, Overcast
Light rain, Mist, Overcast
 Wind from N
Wind: N 16 mph , 26 km/h
Temperature: 41°F , 5°C
Wind Chill: 33°F , 1°C
Dew Point: 37°F , 3°C
Humidity: 87%
Barometer: 29.47 inHg , 998 hPa
Summary: Light rain, Mist
Clouds: Overcast
Visibility: 6 miles , 10 km
Cloud details: Overcast 900 ft
2017/11/18 15:09 KORD 181509Z 01014KT 6SM -RA BR OVC009 05/03 A2947 RMK AO2 P0001 T00500033
 
KSTL - St. Louis, Missouri, USA
Distance from station: SW 150mi, 185km
Updated: Sat, 18-Nov-2017 8:51am CST
Light rain, Mostly cloudy
Light rain, Mostly cloudy
 Wind from SW
Wind: SW 13 mph , 20 km/h
Temperature: 70°F , 21°C
Dew Point: 63°F , 17°C
Humidity: 78%
Barometer: 29.34 inHg , 993.6 hPa
Summary: Light rain
Clouds: Mostly cloudy
Visibility: 10 miles , 16 km
Cloud details: Few Clouds 2900 ft
Partly cloudy 3900 ft
Mostly cloudy 5000 ft
Mostly cloudy 15000 ft
2017/11/18 14:51 KSTL 181451Z 23011KT 10SM -RA FEW029 SCT039 BKN050 BKN150 21/17 A2934 RMK AO2 RAB44 SLP928 P0000 60000 T02110172 55012